Impacts TAF Board
For situational awareness. Not to be used for flight planning purposes.
IDs:

KEWR - Newark Intl, NJ, US

Issued at 1932 UTC 20 Sep 2018
Updated at 1956 UTC 20 Sep 2018
Potential Impact None Slight Moderate High
Time1951Z 20/20Z 20/21Z 20/22Z 20/23Z 21/00Z 21/01Z 21/02Z 21/03Z 21/04Z 21/05Z 21/06Z 21/07Z 21/08Z>>
Type OBS PRVL PRVL PRVL PRVL PRVL PRVL PRVL PRVL PRVL PRVL PRVL PRVL PRVL
VIS 10 >6 >6 >6 >6 >6 >6 >6 >6 >6 >6 >6 >6 >6
CIG 38 35 -- -- -- -- -- -- -- -- 26 26 26 26
Cover BKN OVC SCT SCT SCT SCT SCT SCT SCT SCT BKN BKN BKN BKN
FltCat VFR VFR VFR VFR VFR VFR VFR VFR VFR VFR MVFR MVFR MVFR MVFR
WX -- -- -- -- -- -- -- -- -- -- -- -- -- --
WDir VRB 120 140 140 140 140 140 140 140 140 140 140 140 140
WSpd 0 5 5 5 5 5 5 5 5 5 5 5 5 5
WGst -- -- -- -- -- -- -- -- -- -- -- -- -- --
Raw TAF
KEWR 201932Z 2020/2124 12005KT P6SM BKN035 OVC060
  FM202100 14005KT P6SM SCT030
  FM210500 14005KT P6SM BKN026
  FM211600 16010G17KT P6SM BKN026
  FM211800 18014G24KT P6SM BKN028


Raw METAR
KEWR 201951Z 00000KT 10SM FEW032 BKN038 BKN055 23/14 A3021 RMK AO2 SLP228 T02280139 $
KEWR 201851Z 00000KT 10SM FEW032 BKN036 OVC060 22/14 A3021 RMK AO2 SLP230 T02220139 $
KEWR 201751Z VRB04KT 10SM FEW030 BKN036 OVC055 22/14 A3023 RMK AO2 SLP235 T02220139 10222 20189 58003 $
KEWR 201651Z VRB04KT 10SM FEW025 SCT035 OVC050 21/14 A3024 RMK AO2 SLP239 T02110139 $

METAR Board
Radar Display
Forecast Discussion
For situational awareness. Not to be used for flight planning purposes.